createdAt,value
2023-03-20T00:02:23.126Z,6.90
2023-03-20T00:04:51.003Z,4.80
2023-03-20T00:07:19.300Z,5.53
2023-03-20T00:09:46.361Z,4.93
2023-03-20T00:12:23.320Z,5.38
2023-03-20T00:14:51.537Z,6.03
2023-03-20T00:17:20.766Z,6.45
2023-03-20T00:19:48.120Z,4.30
2023-03-20T00:22:15.435Z,4.65
2023-03-20T00:24:43.386Z,5.18
2023-03-20T00:27:16.048Z,5.53
2023-03-20T00:29:44.156Z,3.90
2023-03-20T00:32:15.146Z,4.97
2023-03-20T00:34:43.712Z,5.55
2023-03-20T00:37:13.669Z,4.30
2023-03-20T00:39:41.482Z,5.00
2023-03-20T00:42:20.529Z,4.65
2023-03-20T00:44:59.636Z,3.70
2023-03-20T00:47:27.400Z,5.63
2023-03-20T00:49:56.086Z,5.80
2023-03-20T00:52:25.544Z,5.22
2023-03-20T00:54:52.613Z,5.35
2023-03-20T00:57:24.675Z,4.95
2023-03-20T00:59:53.751Z,5.35
2023-03-20T01:02:22.055Z,4.32
2023-03-20T01:04:49.544Z,4.05
2023-03-20T01:07:16.513Z,5.00
2023-03-20T01:09:43.515Z,4.78
2023-03-20T01:12:14.951Z,4.38
2023-03-20T01:14:43.391Z,3.95
2023-03-20T01:17:19.099Z,5.10
2023-03-20T01:19:46.777Z,3.72
2023-03-20T01:22:20.080Z,4.57
2023-03-20T01:24:47.599Z,5.75
2023-03-20T01:27:19.858Z,6.25
2023-03-20T01:29:48.700Z,4.30
2023-03-20T01:32:18.706Z,4.80
2023-03-20T01:34:49.098Z,4.00
2023-03-20T01:37:28.429Z,4.18
2023-03-20T01:40:02.194Z,4.78
2023-03-20T01:42:33.513Z,6.63
2023-03-20T01:45:00.589Z,6.55
2023-03-20T01:47:29.135Z,4.60
2023-03-20T01:50:19.465Z,5.32
2023-03-20T01:52:50.854Z,7.30
2023-03-20T01:55:19.314Z,6.60
2023-03-20T01:57:54.611Z,4.72
2023-03-20T02:00:23.955Z,5.22
2023-03-20T02:02:51.433Z,4.97
2023-03-20T02:05:39.351Z,4.32
2023-03-20T02:08:18.582Z,4.70
2023-03-20T02:10:47.552Z,4.43
2023-03-20T02:13:25.312Z,4.28
2023-03-20T02:16:07.626Z,4.70
2023-03-20T02:18:56.372Z,4.93
2023-03-20T02:21:40.493Z,4.30
2023-03-20T02:24:31.998Z,3.83
2023-03-20T02:27:31.244Z,4.07
2023-03-20T02:30:07.652Z,5.57
2023-03-20T02:32:58.586Z,4.70
2023-03-20T02:35:48.803Z,3.53
2023-03-20T02:38:37.862Z,4.43
2023-03-20T02:41:18.442Z,5.05
2023-03-20T02:43:55.462Z,4.50
2023-03-20T02:46:22.568Z,4.50
2023-03-20T02:49:04.969Z,6.60
2023-03-20T02:51:44.418Z,5.10
2023-03-20T02:54:38.460Z,4.03
2023-03-20T02:57:17.916Z,3.85
2023-03-20T02:59:54.426Z,5.70
2023-03-20T03:02:44.046Z,5.65
2023-03-20T03:05:16.711Z,3.97
2023-03-20T03:07:49.981Z,3.83
2023-03-20T03:10:34.430Z,3.92
2023-03-20T03:13:03.743Z,3.85
2023-03-20T03:15:41.656Z,3.60
2023-03-20T03:18:15.423Z,4.18
2023-03-20T03:20:45.018Z,3.53
2023-03-20T03:23:23.320Z,3.83
2023-03-20T03:25:51.833Z,4.65
2023-03-20T03:28:37.320Z,4.35
2023-03-20T03:31:08.988Z,4.50
2023-03-20T03:33:40.450Z,4.47
2023-03-20T03:36:08.209Z,3.72
2023-03-20T03:38:44.754Z,4.43
2023-03-20T03:41:33.225Z,4.80
2023-03-20T03:44:06.919Z,3.53
2023-03-20T03:46:40.141Z,5.20
2023-03-20T03:49:12.740Z,4.50
2023-03-20T03:51:43.851Z,3.40
2023-03-20T03:54:18.394Z,5.32
2023-03-20T03:56:58.772Z,4.05
2023-03-20T03:59:42.047Z,3.88
2023-03-20T04:02:10.228Z,4.35
2023-03-20T04:04:42.563Z,5.00
2023-03-20T04:07:09.691Z,3.78
2023-03-20T04:09:36.682Z,4.20
2023-03-20T04:12:03.927Z,4.05
2023-03-20T04:14:33.510Z,4.45
2023-03-20T04:17:01.031Z,4.20
2023-03-20T04:19:28.400Z,5.97
2023-03-20T04:21:55.637Z,6.07
2023-03-20T04:24:23.435Z,3.63
2023-03-20T04:26:50.818Z,3.70
2023-03-20T04:29:19.131Z,3.60
2023-03-20T04:31:57.806Z,3.38
2023-03-20T04:34:45.062Z,3.58
2023-03-20T04:37:50.438Z,3.53
2023-03-20T04:40:18.943Z,3.30
2023-03-20T04:42:47.256Z,3.78
2023-03-20T04:45:14.355Z,4.22
2023-03-20T04:47:42.173Z,4.40
2023-03-20T04:50:10.848Z,4.40
2023-03-20T04:52:37.944Z,4.03
2023-03-20T04:55:06.746Z,3.85
2023-03-20T04:57:34.965Z,4.55
2023-03-20T05:00:02.038Z,4.40
2023-03-20T05:02:29.823Z,5.88
2023-03-20T05:04:57.892Z,4.72
2023-03-20T05:07:26.006Z,4.45
2023-03-20T05:10:01.432Z,3.00
2023-03-20T05:12:31.692Z,3.95
2023-03-20T05:15:18.937Z,5.75
2023-03-20T05:18:10.553Z,4.32
2023-03-20T05:20:51.566Z,4.28
2023-03-20T05:23:37.419Z,4.75
2023-03-20T05:26:38.504Z,4.25
2023-03-20T05:29:40.447Z,4.20
2023-03-20T05:32:07.565Z,3.63
2023-03-20T05:34:53.048Z,3.85
2023-03-20T05:37:31.966Z,5.68
2023-03-20T05:40:07.713Z,4.25
2023-03-20T05:42:53.808Z,4.20
2023-03-20T05:45:39.585Z,4.25
2023-03-20T05:48:28.606Z,3.33
2023-03-20T05:51:14.163Z,3.13
2023-03-20T05:53:51.831Z,3.00
2023-03-20T05:56:47.974Z,2.90
2023-03-20T05:59:33.698Z,4.07
2023-03-20T06:02:16.123Z,3.72
2023-03-20T06:04:51.293Z,3.13
2023-03-20T06:07:27.367Z,4.07
2023-03-20T06:10:04.931Z,3.72
2023-03-20T06:12:32.665Z,3.85
2023-03-20T06:15:00.882Z,3.17
2023-03-20T06:17:31.209Z,5.18
2023-03-20T06:20:02.368Z,3.17
2023-03-20T06:22:30.522Z,4.22
2023-03-20T06:24:57.596Z,4.18
2023-03-20T06:27:31.365Z,3.63
2023-03-20T06:29:58.547Z,4.43
2023-03-20T06:32:31.211Z,3.50
2023-03-20T06:35:01.048Z,4.93
2023-03-20T06:37:28.997Z,3.30
2023-03-20T06:40:05.264Z,4.07
2023-03-20T06:42:33.766Z,4.68
2023-03-20T06:45:01.923Z,4.38
2023-03-20T06:47:50.463Z,3.10
2023-03-20T06:50:17.621Z,4.43
2023-03-20T06:52:45.044Z,4.00
2023-03-20T06:55:31.325Z,3.88
2023-03-20T06:57:58.424Z,5.18
2023-03-20T07:00:26.167Z,3.83
2023-03-20T07:02:54.559Z,4.00
2023-03-20T07:05:23.215Z,3.40
2023-03-20T07:07:51.073Z,4.15
2023-03-20T07:10:18.092Z,3.80
2023-03-20T07:12:51.087Z,5.13
2023-03-20T07:15:19.412Z,5.70
2023-03-20T07:17:47.652Z,5.35
2023-03-20T07:20:15.267Z,6.05
2023-03-20T07:22:43.850Z,7.88
2023-03-20T07:25:20.584Z,5.45
2023-03-20T07:27:54.530Z,5.00
2023-03-20T07:30:24.140Z,7.00
2023-03-20T07:32:51.781Z,4.63
2023-03-20T07:35:20.561Z,5.28
2023-03-20T07:37:47.754Z,4.90
2023-03-20T07:40:16.770Z,4.88
2023-03-20T07:42:54.150Z,11.25
2023-03-20T07:48:07.729Z,21.60
2023-03-20T07:50:34.783Z,28.08
2023-03-20T07:53:03.803Z,26.85
2023-03-20T07:55:30.977Z,17.00
2023-03-20T07:57:57.963Z,7.28
2023-03-20T08:00:28.352Z,4.57
2023-03-20T08:02:57.142Z,7.50
2023-03-20T08:05:25.208Z,4.63
2023-03-20T08:07:52.436Z,5.70
2023-03-20T08:10:19.737Z,5.80
2023-03-20T08:12:46.815Z,5.53
2023-03-20T08:15:14.133Z,5.90
2023-03-20T08:17:45.696Z,5.82
2023-03-20T08:20:16.045Z,4.78
2023-03-20T08:22:45.089Z,5.03
2023-03-20T08:25:12.120Z,5.72
2023-03-20T08:27:39.435Z,5.90
2023-03-20T08:30:07.056Z,6.70
2023-03-20T08:32:34.624Z,6.50
2023-03-20T08:35:04.171Z,5.72
2023-03-20T08:37:31.655Z,5.80
2023-03-20T08:39:58.756Z,5.47
2023-03-20T08:42:25.777Z,7.40
2023-03-20T08:44:53.109Z,7.35
2023-03-20T08:47:20.557Z,6.32
2023-03-20T08:49:48.242Z,6.72
2023-03-20T08:52:15.390Z,11.00
2023-03-20T08:54:42.923Z,10.15
2023-03-20T08:57:09.990Z,11.68
2023-03-20T08:59:37.020Z,15.00
2023-03-20T09:02:04.105Z,17.98
2023-03-20T09:04:31.146Z,17.70
2023-03-20T09:06:58.431Z,15.93
2023-03-20T09:09:29.535Z,12.98
2023-03-20T09:11:57.429Z,12.15
2023-03-20T09:14:25.219Z,15.50
2023-03-20T09:16:52.314Z,13.43
2023-03-20T09:19:19.896Z,14.57
2023-03-20T09:21:47.458Z,15.13
2023-03-20T09:24:15.755Z,14.43
2023-03-20T09:26:42.742Z,17.98
2023-03-20T09:29:09.907Z,20.45
2023-03-20T09:31:37.641Z,20.33
2023-03-20T09:34:04.936Z,20.02
2023-03-20T09:36:32.194Z,23.08
2023-03-20T09:39:02.749Z,21.38
2023-03-20T09:41:45.841Z,20.20
2023-03-20T09:44:39.085Z,19.90
2023-03-20T09:47:20.232Z,21.30
2023-03-20T09:49:55.045Z,23.55
2023-03-20T09:52:48.443Z,22.98
2023-03-20T09:55:19.483Z,25.60
2023-03-20T09:57:52.506Z,23.65
2023-03-20T10:00:24.716Z,27.75
2023-03-20T10:03:00.985Z,27.83
2023-03-20T10:05:38.337Z,26.95
2023-03-20T10:08:10.280Z,28.58
2023-03-20T10:11:53.170Z,24.58
2023-03-20T10:14:57.557Z,27.60
2023-03-20T10:17:40.083Z,26.20
2023-03-20T10:20:27.054Z,27.02
2023-03-20T10:23:01.784Z,26.60
2023-03-20T10:25:34.791Z,23.20
2023-03-20T10:28:06.307Z,25.30
2023-03-20T10:30:54.622Z,24.15
2023-03-20T10:33:40.687Z,20.63
2023-03-20T10:36:26.422Z,21.45
2023-03-20T10:39:01.866Z,20.40
2023-03-20T10:41:36.583Z,17.88
2023-03-20T10:44:05.079Z,22.17
2023-03-20T10:46:35.627Z,20.20
2023-03-20T10:49:19.108Z,19.20
2023-03-20T10:51:54.856Z,19.77
2023-03-20T10:56:56.007Z,15.80
2023-03-20T10:59:54.919Z,18.70
2023-03-20T11:02:25.150Z,18.17
2023-03-20T11:04:52.231Z,17.40
2023-03-20T11:07:31.634Z,18.45
2023-03-20T11:10:05.387Z,17.38
2023-03-20T11:12:35.343Z,18.30
2023-03-20T11:15:15.406Z,21.02
2023-03-20T11:17:42.691Z,19.08
2023-03-20T11:20:14.684Z,19.05
2023-03-20T11:22:41.829Z,19.15
2023-03-20T11:25:29.537Z,20.05
2023-03-20T11:27:57.531Z,18.73
2023-03-20T11:30:25.025Z,20.42
2023-03-20T11:32:55.972Z,21.58
2023-03-20T11:35:26.423Z,21.60
2023-03-20T11:37:56.886Z,17.90
2023-03-20T11:40:34.753Z,21.35
2023-03-20T11:43:01.951Z,19.48
2023-03-20T11:45:38.657Z,21.48
2023-03-20T11:48:07.104Z,18.75
2023-03-20T11:50:37.997Z,18.38
2023-03-20T11:53:23.262Z,19.65
2023-03-20T11:56:02.329Z,21.83
2023-03-20T11:58:29.961Z,17.45
2023-03-20T12:00:58.210Z,18.25
2023-03-20T12:03:50.383Z,16.75
2023-03-20T12:06:20.740Z,19.90
2023-03-20T12:09:06.126Z,18.33
2023-03-20T12:12:05.770Z,16.10
2023-03-20T12:14:46.455Z,18.13
2023-03-20T12:17:14.972Z,18.98
2023-03-20T12:19:44.191Z,22.45
2023-03-20T12:22:38.795Z,18.08
2023-03-20T12:25:21.567Z,18.50
2023-03-20T12:27:56.589Z,18.20
2023-03-20T12:30:32.127Z,19.83
2023-03-20T12:33:15.906Z,16.80
2023-03-20T12:35:47.743Z,16.77
2023-03-20T12:38:28.060Z,17.40
2023-03-20T12:41:11.225Z,17.33
2023-03-20T12:44:02.509Z,17.40
2023-03-20T12:46:42.461Z,18.55
2023-03-20T12:49:13.211Z,17.98
2023-03-20T12:51:56.198Z,18.92
2023-03-20T12:54:35.949Z,18.95
2023-03-20T12:57:24.091Z,18.75
2023-03-20T13:00:12.852Z,19.67
2023-03-20T13:02:55.018Z,20.85
2023-03-20T13:05:41.596Z,22.35
2023-03-20T13:08:34.512Z,18.13
2023-03-20T13:11:27.074Z,22.13
2023-03-20T13:14:04.472Z,21.52
2023-03-20T13:16:58.120Z,20.63
2023-03-20T13:19:36.280Z,22.27
2023-03-20T13:22:16.323Z,21.55
2023-03-20T13:24:55.274Z,22.02
2023-03-20T13:27:34.357Z,24.48
2023-03-20T13:30:26.543Z,21.95
2023-03-20T13:32:57.870Z,23.42
2023-03-20T13:35:54.006Z,26.13
2023-03-20T13:38:30.476Z,20.52
2023-03-20T13:41:11.870Z,24.58
2023-03-20T13:43:54.381Z,22.67
2023-03-20T13:46:26.523Z,25.48
2023-03-20T13:48:57.057Z,25.08
2023-03-20T13:51:32.568Z,27.02
2023-03-20T13:54:37.586Z,27.33
2023-03-20T13:57:28.279Z,23.85
2023-03-20T14:00:08.452Z,27.48
2023-03-20T14:03:14.928Z,29.75
2023-03-20T14:05:43.879Z,27.38
2023-03-20T14:08:32.652Z,27.65
2023-03-20T14:11:21.541Z,23.65
2023-03-20T14:13:52.780Z,23.63
2023-03-20T14:16:20.928Z,26.35
2023-03-20T14:19:04.390Z,30.45
2023-03-20T14:21:34.738Z,29.85
2023-03-20T14:24:05.202Z,28.80
2023-03-20T14:26:37.999Z,28.83
2023-03-20T14:29:11.349Z,32.00
2023-03-20T14:31:42.608Z,28.65
2023-03-20T14:34:13.231Z,28.23
2023-03-20T14:37:02.802Z,27.65
2023-03-20T14:39:52.081Z,27.17
2023-03-20T14:42:38.893Z,27.17
2023-03-20T14:45:32.993Z,26.65
2023-03-20T14:48:35.406Z,29.73
2023-03-20T14:51:09.279Z,29.35
2023-03-20T14:53:36.612Z,30.98
2023-03-20T14:56:12.976Z,31.85
2023-03-20T14:58:40.228Z,25.45
2023-03-20T15:01:24.124Z,29.02
2023-03-20T15:03:57.513Z,24.98
2023-03-20T15:06:27.058Z,30.70
2023-03-20T15:09:01.175Z,27.13
2023-03-20T15:11:29.588Z,26.90
2023-03-20T15:14:00.012Z,25.13
2023-03-20T15:16:30.531Z,27.38
2023-03-20T15:18:59.700Z,27.27
2023-03-20T15:21:48.101Z,25.80
2023-03-20T15:24:31.674Z,27.50
2023-03-20T15:27:01.627Z,28.27
2023-03-20T15:29:31.207Z,29.35
2023-03-20T15:32:13.546Z,28.60
2023-03-20T15:34:43.158Z,28.25
2023-03-20T15:37:16.164Z,34.20
2023-03-20T15:39:47.047Z,28.83
2023-03-20T15:42:17.316Z,34.38
2023-03-20T15:44:48.412Z,32.95
2023-03-20T15:50:14.115Z,31.50
2023-03-20T15:52:53.192Z,25.90
2023-03-20T15:55:23.534Z,30.30
2023-03-20T15:57:54.076Z,33.17
2023-03-20T16:00:39.901Z,27.92
2023-03-20T16:03:15.130Z,36.08
2023-03-20T16:05:44.712Z,33.35
2023-03-20T16:08:22.914Z,32.28
2023-03-20T16:10:54.572Z,29.70
2023-03-20T16:13:23.636Z,46.55
2023-03-20T16:15:51.702Z,41.60
2023-03-20T16:18:19.598Z,42.25
2023-03-20T16:21:04.473Z,33.67
2023-03-20T16:23:53.124Z,30.02
2023-03-20T16:26:22.646Z,26.25
2023-03-20T16:28:55.517Z,27.23
2023-03-20T16:31:30.052Z,25.70
2023-03-20T16:34:02.782Z,25.70
2023-03-20T16:36:33.220Z,30.27
2023-03-20T16:39:07.466Z,31.63
2023-03-20T16:41:35.688Z,33.80
2023-03-20T16:44:11.714Z,28.85
2023-03-20T16:47:00.050Z,31.23
2023-03-20T16:49:32.319Z,32.08
2023-03-20T16:52:02.064Z,30.67
2023-03-20T16:54:36.286Z,30.52
2023-03-20T16:57:07.968Z,34.10
2023-03-20T16:59:39.812Z,32.63
2023-03-20T17:02:24.129Z,32.42
2023-03-20T17:04:56.330Z,37.15
2023-03-20T17:07:28.172Z,38.58
2023-03-20T17:09:59.899Z,34.58
2023-03-20T17:12:32.337Z,29.63
2023-03-20T17:14:59.399Z,33.72
2023-03-20T17:17:26.732Z,39.40
2023-03-20T17:19:53.907Z,35.70
2023-03-20T17:22:23.768Z,29.65
2023-03-20T17:24:51.090Z,64.38
2023-03-20T17:27:19.549Z,70.15
2023-03-20T17:29:47.535Z,51.55
2023-03-20T17:32:17.785Z,38.55
2023-03-20T17:34:45.773Z,32.35
2023-03-20T17:37:15.697Z,28.50
2023-03-20T17:39:42.812Z,30.27
2023-03-20T17:42:18.870Z,29.38
2023-03-20T17:44:47.375Z,30.55
2023-03-20T17:47:20.021Z,28.77
2023-03-20T17:49:48.910Z,30.33
2023-03-20T17:52:19.352Z,30.15
2023-03-20T17:54:47.093Z,30.33
2023-03-20T17:57:22.230Z,32.92
2023-03-20T17:59:50.177Z,34.28
2023-03-20T18:02:18.526Z,35.55
2023-03-20T18:04:46.304Z,32.95
2023-03-20T18:07:13.754Z,31.90
2023-03-20T18:09:41.732Z,32.13
2023-03-20T18:12:15.630Z,33.88
2023-03-20T18:14:43.691Z,33.53
2023-03-20T18:17:16.033Z,34.38
2023-03-20T18:19:44.353Z,35.22
2023-03-20T18:22:11.833Z,34.80
2023-03-20T18:24:43.373Z,31.08
2023-03-20T18:27:12.285Z,32.13
2023-03-20T18:29:39.343Z,33.13
2023-03-20T18:32:06.447Z,37.03
2023-03-20T18:34:33.389Z,35.75
2023-03-20T18:37:00.493Z,37.00
2023-03-20T18:39:28.820Z,33.65
2023-03-20T18:41:55.948Z,34.33
2023-03-20T18:44:22.879Z,38.42
2023-03-20T18:46:51.114Z,38.40
2023-03-20T18:49:19.156Z,33.42
2023-03-20T18:51:46.516Z,32.17
2023-03-20T18:54:13.805Z,33.72
2023-03-20T18:56:41.341Z,29.17
2023-03-20T18:59:12.508Z,27.73
2023-03-20T19:01:39.722Z,24.38
2023-03-20T19:04:07.056Z,24.48
2023-03-20T19:06:34.149Z,23.10
2023-03-20T19:09:05.195Z,23.85
2023-03-20T19:11:32.210Z,21.00
2023-03-20T19:13:59.360Z,19.17
2023-03-20T19:16:31.877Z,19.25
2023-03-20T19:19:01.804Z,18.80
2023-03-20T19:21:30.069Z,16.77
2023-03-20T19:23:59.268Z,15.85
2023-03-20T19:26:27.801Z,16.05
2023-03-20T19:28:56.703Z,15.93
2023-03-20T19:31:24.685Z,15.07
2023-03-20T19:33:52.044Z,16.38
2023-03-20T19:36:29.816Z,14.35
2023-03-20T19:38:58.206Z,13.98
2023-03-20T19:41:26.072Z,14.38
2023-03-20T19:43:55.518Z,15.48
2023-03-20T19:46:41.083Z,13.90
2023-03-20T19:49:20.535Z,14.43
2023-03-20T19:51:49.127Z,13.68
2023-03-20T19:54:16.645Z,11.80
2023-03-20T19:56:43.772Z,11.48
2023-03-20T19:59:10.923Z,12.00
2023-03-20T20:01:38.102Z,12.85
2023-03-20T20:04:05.368Z,12.10
2023-03-20T20:06:33.242Z,12.57
2023-03-20T20:09:01.420Z,13.45
2023-03-20T20:11:29.493Z,13.38
2023-03-20T20:14:14.932Z,13.63
2023-03-20T20:16:44.048Z,14.30
2023-03-20T20:19:12.000Z,13.48
2023-03-20T20:24:26.686Z,14.27
2023-03-20T20:27:07.313Z,12.73
2023-03-20T20:29:42.344Z,13.15
2023-03-20T20:32:09.537Z,15.55
2023-03-20T20:38:19.661Z,13.88
2023-03-20T20:40:15.594Z,12.65
2023-03-20T20:42:43.306Z,12.35
2023-03-20T20:45:14.142Z,11.63
2023-03-20T20:47:43.954Z,12.13
2023-03-20T20:50:17.105Z,12.65
2023-03-20T20:52:44.593Z,14.02
2023-03-20T20:55:22.549Z,15.25
2023-03-20T20:57:52.174Z,13.65
2023-03-20T21:00:21.375Z,14.98
2023-03-20T21:02:48.632Z,12.82
2023-03-20T21:05:17.825Z,11.93
2023-03-20T21:07:46.807Z,14.93
2023-03-20T21:10:16.910Z,14.43
2023-03-20T21:12:58.027Z,12.02
2023-03-20T21:15:26.881Z,11.98
2023-03-20T21:18:01.169Z,11.95
2023-03-20T21:20:31.094Z,12.03
2023-03-20T21:22:58.427Z,12.70
2023-03-20T21:25:39.192Z,11.10
2023-03-20T21:28:07.523Z,12.50
2023-03-20T21:30:34.614Z,11.85
2023-03-20T21:33:02.336Z,13.57
2023-03-20T21:35:29.449Z,15.13
2023-03-20T21:40:44.520Z,13.38
2023-03-20T21:43:12.266Z,15.50
2023-03-20T21:49:30.020Z,11.65
2023-03-20T21:57:24.913Z,14.05
2023-03-20T22:00:14.917Z,14.15
2023-03-20T22:02:27.655Z,14.20
2023-03-20T22:22:34.446Z,13.52
2023-03-20T22:25:20.429Z,14.77
2023-03-20T22:28:00.850Z,14.88
2023-03-20T22:31:09.028Z,16.65
2023-03-20T22:33:55.553Z,16.38
2023-03-20T22:36:46.513Z,13.32
2023-03-20T22:39:15.950Z,16.05
2023-03-20T22:42:13.890Z,16.00
2023-03-20T22:47:04.733Z,14.05
2023-03-20T22:49:31.719Z,20.02
2023-03-20T22:52:20.026Z,14.77
2023-03-20T22:54:45.798Z,16.20
2023-03-20T22:57:12.837Z,15.15
2023-03-20T22:59:40.075Z,17.25
2023-03-20T23:02:07.125Z,17.30
2023-03-20T23:04:34.303Z,18.30
2023-03-20T23:07:02.031Z,17.20
2023-03-20T23:09:29.736Z,18.17
2023-03-20T23:11:56.801Z,17.40
2023-03-20T23:14:28.416Z,18.88
2023-03-20T23:16:57.722Z,18.33
2023-03-20T23:19:26.513Z,17.33
2023-03-20T23:21:53.693Z,17.52
2023-03-20T23:24:21.616Z,17.20
2023-03-20T23:26:48.580Z,18.48
2023-03-20T23:29:15.655Z,17.63
2023-03-20T23:31:42.830Z,19.20
2023-03-20T23:34:11.175Z,20.70
2023-03-20T23:36:38.225Z,23.60
2023-03-20T23:39:07.148Z,22.02
2023-03-20T23:42:06.492Z,23.40
2023-03-20T23:44:21.894Z,21.73
2023-03-20T23:46:49.250Z,20.90
2023-03-20T23:49:17.628Z,21.10
2023-03-20T23:51:44.739Z,17.48
2023-03-20T23:54:12.430Z,19.27
2023-03-20T23:56:39.787Z,18.58
2023-03-20T23:59:20.198Z,19.17
